createdAt,value
2022-12-28T00:01:15.897Z,72.79
2022-12-28T00:03:43.066Z,72.44
2022-12-28T00:06:10.279Z,72.29
2022-12-28T00:08:36.935Z,72.44
2022-12-28T00:11:20.286Z,72.39
2022-12-28T00:13:54.815Z,72.52
2022-12-28T00:16:27.269Z,72.25
2022-12-28T00:18:55.083Z,72.61
2022-12-28T00:21:21.952Z,72.70
2022-12-28T00:23:50.780Z,72.70
2022-12-28T00:26:17.434Z,72.45
2022-12-28T00:28:43.778Z,72.31
2022-12-28T00:31:10.409Z,72.61
2022-12-28T00:33:36.805Z,72.40
2022-12-28T00:36:04.131Z,73.31
2022-12-28T00:38:35.575Z,74.16
2022-12-28T00:41:01.920Z,75.23
2022-12-28T00:43:28.293Z,75.80
2022-12-28T00:45:54.677Z,76.61
2022-12-28T00:48:21.686Z,76.94
2022-12-28T00:50:48.125Z,77.56
2022-12-28T00:53:15.100Z,78.77
2022-12-28T00:55:41.646Z,78.85
2022-12-28T00:58:08.775Z,79.72
2022-12-28T01:00:36.834Z,80.41
2022-12-28T01:03:04.864Z,79.90
2022-12-28T01:05:31.334Z,80.10
2022-12-28T01:07:57.676Z,80.67
2022-12-28T01:10:24.101Z,79.76
2022-12-28T01:12:50.436Z,80.05
2022-12-28T01:15:16.916Z,80.40
2022-12-28T01:17:43.265Z,80.65
2022-12-28T01:20:10.285Z,80.11
2022-12-28T01:22:36.655Z,80.35
2022-12-28T01:25:03.451Z,80.97
2022-12-28T01:27:29.922Z,81.54
2022-12-28T01:29:56.249Z,81.93
2022-12-28T01:32:22.607Z,82.43
2022-12-28T01:34:48.932Z,83.02
2022-12-28T01:37:15.270Z,83.34
2022-12-28T01:39:41.606Z,83.11
2022-12-28T01:42:16.384Z,83.18
2022-12-28T01:44:48.335Z,83.49
2022-12-28T01:47:28.296Z,83.12
2022-12-28T01:50:04.812Z,82.63
2022-12-28T01:52:55.804Z,83.03
2022-12-28T01:55:26.440Z,82.40
2022-12-28T01:58:01.491Z,82.63
2022-12-28T02:00:28.431Z,82.07
2022-12-28T02:02:59.212Z,82.00
2022-12-28T02:05:30.024Z,81.44
2022-12-28T02:08:10.632Z,81.39
2022-12-28T02:10:42.726Z,81.00
2022-12-28T02:13:14.132Z,80.70
2022-12-28T02:15:40.575Z,80.29
2022-12-28T02:18:06.968Z,80.44
2022-12-28T02:20:59.284Z,79.95
2022-12-28T02:23:53.675Z,79.79
2022-12-28T02:26:53.563Z,79.48
2022-12-28T02:29:38.118Z,79.49
2022-12-28T02:32:23.063Z,79.15
2022-12-28T02:35:06.659Z,79.24
2022-12-28T02:37:40.404Z,78.87
2022-12-28T02:40:15.448Z,78.54
2022-12-28T02:42:43.651Z,78.68
2022-12-28T02:45:51.988Z,79.03
2022-12-28T02:48:37.319Z,79.09
2022-12-28T02:51:26.032Z,78.46
2022-12-28T02:54:07.373Z,78.92
2022-12-28T02:56:49.169Z,78.91
2022-12-28T02:59:18.976Z,79.13
2022-12-28T03:01:56.244Z,78.98
2022-12-28T03:04:47.581Z,79.21
2022-12-28T03:07:40.905Z,78.51
2022-12-28T03:10:19.210Z,79.46
2022-12-28T03:13:01.354Z,80.08
2022-12-28T03:15:37.667Z,81.23
2022-12-28T03:18:33.876Z,82.32
2022-12-28T03:21:22.990Z,83.34
2022-12-28T03:24:10.982Z,83.86
2022-12-28T03:27:09.565Z,84.84
2022-12-28T03:30:13.779Z,85.27
2022-12-28T03:32:40.383Z,85.92
2022-12-28T03:35:07.565Z,86.19
2022-12-28T03:37:50.049Z,86.91
2022-12-28T03:40:28.302Z,86.97
2022-12-28T03:43:19.276Z,87.14
2022-12-28T03:45:47.463Z,87.10
2022-12-28T03:48:17.283Z,87.42
2022-12-28T03:50:48.060Z,87.29
2022-12-28T03:53:19.314Z,87.34
2022-12-28T03:55:45.826Z,87.12
2022-12-28T03:58:14.593Z,86.93
2022-12-28T04:00:41.351Z,86.63
2022-12-28T04:03:07.836Z,86.29
2022-12-28T04:05:34.877Z,86.74
2022-12-28T04:08:01.298Z,86.41
2022-12-28T04:10:28.005Z,86.43
2022-12-28T04:12:56.540Z,86.00
2022-12-28T04:15:30.732Z,86.02
2022-12-28T04:18:00.932Z,86.38
2022-12-28T04:20:27.391Z,86.40
2022-12-28T04:22:53.878Z,86.27
2022-12-28T04:25:20.372Z,86.46
2022-12-28T04:27:47.349Z,86.53
2022-12-28T04:30:33.637Z,86.58
2022-12-28T04:33:00.034Z,86.98
2022-12-28T04:35:27.015Z,87.00
2022-12-28T04:37:54.099Z,87.71
2022-12-28T04:40:20.440Z,87.95
2022-12-28T04:42:46.778Z,88.19
2022-12-28T04:45:16.955Z,88.10
2022-12-28T04:47:48.032Z,88.27
2022-12-28T04:50:14.371Z,88.65
2022-12-28T04:52:40.723Z,88.90
2022-12-28T04:55:07.425Z,89.20
2022-12-28T04:57:53.728Z,89.22
2022-12-28T05:00:20.173Z,89.90
2022-12-28T05:02:46.664Z,89.53
2022-12-28T05:05:13.154Z,89.58
2022-12-28T05:07:39.523Z,89.59
2022-12-28T05:10:06.173Z,89.71
2022-12-28T05:12:32.526Z,89.57
2022-12-28T05:14:58.925Z,89.72
2022-12-28T05:17:25.248Z,89.67
2022-12-28T05:19:51.591Z,89.67
2022-12-28T05:22:17.969Z,90.34
2022-12-28T05:24:44.348Z,89.78
2022-12-28T05:27:10.693Z,90.11
2022-12-28T05:29:37.015Z,89.95
2022-12-28T05:32:03.746Z,90.19
2022-12-28T05:34:30.055Z,90.48
2022-12-28T05:36:56.425Z,90.20
2022-12-28T05:39:22.772Z,89.91
2022-12-28T05:41:49.112Z,89.81
2022-12-28T05:44:15.461Z,90.23
2022-12-28T05:46:41.953Z,89.38
2022-12-28T05:49:09.505Z,90.26
2022-12-28T05:51:36.175Z,89.83
2022-12-28T05:54:06.130Z,90.52
2022-12-28T05:56:32.880Z,90.19
2022-12-28T05:59:04.668Z,90.34
2022-12-28T06:01:38.871Z,90.55
2022-12-28T06:04:13.416Z,90.41
2022-12-28T06:06:39.785Z,90.77
2022-12-28T06:09:06.254Z,90.64
2022-12-28T06:11:32.631Z,91.01
2022-12-28T06:13:59.630Z,90.76
2022-12-28T06:16:28.827Z,91.13
2022-12-28T06:18:55.395Z,91.22
2022-12-28T06:21:28.375Z,91.62
2022-12-28T06:23:59.115Z,91.34
2022-12-28T06:26:27.133Z,91.28
2022-12-28T06:28:53.586Z,90.96
2022-12-28T06:31:23.113Z,90.92
2022-12-28T06:33:53.627Z,90.76
2022-12-28T06:36:25.329Z,91.04
2022-12-28T06:38:53.724Z,90.96
2022-12-28T06:41:21.623Z,91.07
2022-12-28T06:43:48.898Z,90.86
2022-12-28T06:46:17.117Z,91.02
2022-12-28T06:48:44.160Z,91.27
2022-12-28T06:51:14.470Z,91.17
2022-12-28T06:53:41.854Z,91.37
2022-12-28T06:56:12.135Z,91.38
2022-12-28T06:58:38.782Z,91.51
2022-12-28T07:01:12.001Z,91.22
2022-12-28T07:03:38.783Z,91.39
2022-12-28T07:06:06.187Z,91.47
2022-12-28T07:08:33.284Z,91.17
2022-12-28T07:11:08.415Z,91.33
2022-12-28T07:13:35.339Z,91.24
2022-12-28T07:16:07.047Z,91.27
2022-12-28T07:18:34.019Z,91.29
2022-12-28T07:21:06.735Z,91.69
2022-12-28T07:23:34.066Z,91.51
2022-12-28T07:26:06.545Z,91.40
2022-12-28T07:28:33.606Z,91.67
2022-12-28T07:31:06.486Z,91.87
2022-12-28T07:33:34.147Z,91.24
2022-12-28T07:36:00.504Z,91.38
2022-12-28T07:38:26.984Z,91.70
2022-12-28T07:40:53.326Z,91.51
2022-12-28T07:43:19.663Z,91.14
2022-12-28T07:45:46.049Z,91.35
2022-12-28T07:48:12.387Z,91.57
2022-12-28T07:50:38.793Z,91.50
2022-12-28T07:53:05.331Z,91.57
2022-12-28T07:55:31.982Z,91.64
2022-12-28T07:57:58.365Z,91.23
2022-12-28T08:00:24.821Z,91.41
2022-12-28T08:02:54.629Z,91.15
2022-12-28T08:05:20.968Z,90.72
2022-12-28T08:07:47.311Z,90.57
2022-12-28T08:10:13.681Z,91.21
2022-12-28T08:12:40.047Z,90.76
2022-12-28T08:15:06.951Z,90.65
2022-12-28T08:17:33.302Z,90.83
2022-12-28T08:19:59.819Z,91.03
2022-12-28T08:22:26.147Z,90.75
2022-12-28T08:24:52.617Z,90.26
2022-12-28T08:27:18.984Z,90.41
2022-12-28T08:29:45.379Z,90.62
2022-12-28T08:32:11.719Z,91.24
2022-12-28T08:34:38.063Z,90.64
2022-12-28T08:37:04.422Z,90.82
2022-12-28T08:39:30.827Z,90.08
2022-12-28T08:41:57.194Z,90.24
2022-12-28T08:44:23.555Z,89.07
2022-12-28T08:46:50.134Z,88.88
2022-12-28T08:49:16.607Z,88.62
2022-12-28T08:51:43.004Z,89.13
2022-12-28T08:54:11.052Z,88.17
2022-12-28T08:56:39.489Z,87.50
2022-12-28T08:59:06.661Z,87.41
2022-12-28T09:01:42.594Z,87.30
2022-12-28T09:04:13.373Z,86.28
2022-12-28T09:06:40.031Z,86.05
2022-12-28T09:09:08.613Z,86.13
2022-12-28T09:11:36.848Z,85.84
2022-12-28T09:14:05.276Z,86.03
2022-12-28T09:16:31.863Z,85.22
2022-12-28T09:19:01.396Z,84.86
2022-12-28T09:21:30.640Z,84.90
2022-12-28T09:23:57.594Z,84.50
2022-12-28T09:26:26.691Z,84.36
2022-12-28T09:28:55.474Z,84.59
2022-12-28T09:31:24.532Z,83.85
2022-12-28T09:36:50.596Z,83.09
2022-12-28T09:39:19.794Z,83.02
2022-12-28T09:41:52.323Z,82.45
2022-12-28T09:44:26.936Z,83.17
2022-12-28T09:47:05.715Z,82.26
2022-12-28T09:49:42.346Z,82.17
2022-12-28T09:52:14.528Z,82.06
2022-12-28T09:54:41.680Z,81.92
2022-12-28T09:57:14.897Z,81.82
2022-12-28T09:59:41.805Z,81.63
2022-12-28T10:02:19.167Z,81.08
2022-12-28T10:04:49.527Z,81.30
2022-12-28T10:07:16.461Z,81.07
2022-12-28T10:09:42.919Z,81.07
2022-12-28T10:12:18.468Z,80.70
2022-12-28T10:14:46.542Z,80.36
2022-12-28T10:17:14.813Z,80.98
2022-12-28T10:19:45.019Z,80.22
2022-12-28T10:22:16.657Z,80.13
2022-12-28T10:24:44.514Z,80.04
2022-12-28T10:27:36.971Z,80.24
2022-12-28T10:30:15.605Z,79.70
2022-12-28T10:32:50.911Z,80.07
2022-12-28T10:35:36.190Z,79.56
2022-12-28T10:38:07.330Z,79.29
2022-12-28T10:40:39.388Z,79.32
2022-12-28T10:43:10.797Z,79.45
2022-12-28T10:45:41.541Z,78.86
2022-12-28T10:48:14.476Z,78.86
2022-12-28T10:50:54.148Z,79.33
2022-12-28T10:53:28.157Z,79.14
2022-12-28T10:56:05.880Z,78.94
2022-12-28T10:58:34.191Z,78.46
2022-12-28T11:01:05.763Z,78.56
2022-12-28T11:03:37.248Z,78.71
2022-12-28T11:06:10.532Z,78.90
2022-12-28T11:08:39.451Z,78.25
2022-12-28T11:11:06.507Z,78.12
2022-12-28T11:13:33.728Z,78.21
2022-12-28T11:16:00.483Z,78.31
2022-12-28T11:18:30.842Z,78.17
2022-12-28T11:21:01.443Z,77.79
2022-12-28T11:23:31.494Z,77.46
2022-12-28T11:25:58.683Z,77.75
2022-12-28T11:28:25.065Z,77.44
2022-12-28T11:30:51.857Z,77.38
2022-12-28T11:33:39.472Z,77.46
2022-12-28T11:36:12.308Z,77.41
2022-12-28T11:38:41.573Z,77.13
2022-12-28T11:41:33.888Z,76.44
2022-12-28T11:44:05.308Z,76.76
2022-12-28T11:46:31.608Z,76.54
2022-12-28T11:49:22.757Z,76.59
2022-12-28T11:52:14.894Z,76.76
2022-12-28T11:54:56.100Z,76.86
2022-12-28T11:57:44.607Z,76.72
2022-12-28T12:00:21.867Z,76.82
2022-12-28T12:03:03.699Z,78.45
2022-12-28T12:05:39.123Z,78.62
2022-12-28T12:08:11.667Z,79.44
2022-12-28T12:10:39.902Z,78.96
2022-12-28T12:13:24.925Z,78.89
2022-12-28T12:15:58.151Z,78.48
2022-12-28T12:18:27.183Z,78.23
2022-12-28T12:21:13.307Z,77.28
2022-12-28T12:23:48.638Z,77.14
2022-12-28T12:26:27.653Z,76.40
2022-12-28T12:29:00.376Z,76.59
2022-12-28T12:31:41.304Z,76.17
2022-12-28T12:34:19.778Z,76.31
2022-12-28T12:37:01.363Z,76.62
2022-12-28T12:39:35.130Z,75.98
2022-12-28T12:42:13.408Z,76.76
2022-12-28T12:44:57.661Z,77.89
2022-12-28T12:47:45.870Z,78.05
2022-12-28T12:50:46.918Z,78.38
2022-12-28T12:53:25.953Z,78.16
2022-12-28T12:56:01.251Z,78.49
2022-12-28T12:58:51.569Z,77.86
2022-12-28T13:01:42.242Z,78.56
2022-12-28T13:04:23.822Z,78.62
2022-12-28T13:06:57.226Z,78.75
2022-12-28T13:09:27.479Z,77.93
2022-12-28T13:11:54.291Z,78.32
2022-12-28T13:14:23.112Z,78.40
2022-12-28T13:16:55.380Z,77.96
2022-12-28T13:19:25.559Z,78.39
2022-12-28T13:21:52.885Z,78.90
2022-12-28T13:24:27.082Z,79.06
2022-12-28T13:26:55.254Z,79.30
2022-12-28T13:29:26.604Z,78.76
2022-12-28T13:31:53.089Z,79.45
2022-12-28T13:34:23.908Z,79.47
2022-12-28T13:36:58.268Z,79.65
2022-12-28T13:39:26.778Z,79.45
2022-12-28T13:42:18.025Z,79.07
2022-12-28T13:44:55.624Z,79.35
2022-12-28T13:47:37.047Z,78.78
2022-12-28T13:50:09.513Z,79.27
2022-12-28T13:52:55.266Z,76.93
2022-12-28T13:55:36.093Z,75.96
2022-12-28T13:58:12.362Z,76.09
2022-12-28T14:00:42.303Z,76.85
2022-12-28T14:03:11.595Z,76.76
2022-12-28T14:05:43.397Z,75.67
2022-12-28T14:08:09.819Z,75.45
2022-12-28T14:10:36.868Z,74.60
2022-12-28T14:13:04.753Z,74.23
2022-12-28T14:15:40.868Z,74.33
2022-12-28T14:18:08.390Z,73.66
2022-12-28T14:20:50.135Z,72.80
2022-12-28T14:23:22.226Z,73.07
2022-12-28T14:25:49.386Z,73.44
2022-12-28T14:28:26.390Z,73.17
2022-12-28T14:30:55.248Z,73.77
2022-12-28T14:33:27.655Z,73.77
2022-12-28T14:35:59.173Z,73.29
2022-12-28T14:38:31.744Z,73.26
2022-12-28T14:41:00.572Z,73.67
2022-12-28T14:43:32.720Z,72.58
2022-12-28T14:46:37.056Z,73.07
2022-12-28T14:49:28.447Z,72.61
2022-12-28T14:51:56.196Z,72.91
2022-12-28T14:54:26.367Z,72.49
2022-12-28T14:57:05.591Z,72.67
2022-12-28T14:59:38.056Z,72.56
2022-12-28T15:02:05.073Z,73.06
2022-12-28T15:04:39.279Z,72.35
2022-12-28T15:07:07.740Z,72.16
2022-12-28T15:09:34.739Z,72.03
2022-12-28T15:12:20.459Z,72.13
2022-12-28T15:14:46.920Z,72.32
2022-12-28T15:17:13.850Z,71.56
2022-12-28T15:19:43.129Z,71.98
2022-12-28T15:22:09.499Z,71.99
2022-12-28T15:24:35.970Z,71.78
2022-12-28T15:27:03.414Z,71.96
2022-12-28T15:32:16.573Z,72.12
2022-12-28T15:34:42.949Z,72.08
2022-12-28T15:37:09.367Z,71.91
2022-12-28T15:39:36.091Z,72.20
2022-12-28T15:42:02.565Z,72.27
2022-12-28T15:44:28.982Z,72.45
2022-12-28T15:46:55.473Z,72.72
2022-12-28T15:49:21.979Z,71.49
2022-12-28T15:51:48.627Z,72.12
2022-12-28T15:54:15.076Z,71.16
2022-12-28T15:56:41.940Z,70.88
2022-12-28T15:59:14.166Z,70.30
2022-12-28T16:01:43.745Z,70.19
2022-12-28T16:04:10.389Z,70.53
2022-12-28T16:06:43.675Z,70.10
2022-12-28T16:09:11.842Z,70.28
2022-12-28T16:11:38.310Z,69.87
2022-12-28T16:14:06.793Z,69.32
2022-12-28T16:16:38.999Z,69.04
2022-12-28T16:19:06.855Z,69.68
2022-12-28T16:21:33.670Z,69.73
2022-12-28T16:24:00.738Z,69.05
2022-12-28T16:26:28.224Z,69.47
2022-12-28T16:28:55.113Z,69.74
2022-12-28T16:31:32.780Z,68.80
2022-12-28T16:34:02.235Z,69.11
2022-12-28T16:36:29.152Z,69.20
2022-12-28T16:38:56.207Z,69.76
2022-12-28T16:41:23.641Z,69.10
2022-12-28T16:43:50.492Z,68.97
2022-12-28T16:46:17.210Z,68.84
2022-12-28T16:48:43.678Z,68.30
2022-12-28T16:51:11.689Z,68.19
2022-12-28T16:53:38.251Z,69.03
2022-12-28T16:56:05.569Z,68.63
2022-12-28T16:58:32.725Z,68.44
2022-12-28T17:01:09.189Z,68.30
2022-12-28T17:03:36.946Z,68.44
2022-12-28T17:06:04.398Z,68.28
2022-12-28T17:08:31.028Z,69.04
2022-12-28T17:10:57.436Z,69.74
2022-12-28T17:13:23.871Z,69.85
2022-12-28T17:15:50.540Z,70.07
2022-12-28T17:18:17.330Z,70.21
2022-12-28T17:20:44.763Z,71.33
2022-12-28T17:23:11.320Z,71.62
2022-12-28T17:25:37.674Z,73.51
2022-12-28T17:28:04.307Z,73.43
2022-12-28T17:30:31.321Z,74.08
2022-12-28T17:32:57.696Z,74.77
2022-12-28T17:35:24.287Z,74.91
2022-12-28T17:37:50.932Z,75.71
2022-12-28T17:40:17.801Z,76.02
2022-12-28T17:42:44.295Z,76.53
2022-12-28T17:45:11.918Z,77.11
2022-12-28T17:47:38.680Z,77.88
2022-12-28T17:50:06.259Z,78.04
2022-12-28T17:52:32.656Z,77.92
2022-12-28T17:54:59.144Z,79.43
2022-12-28T17:57:25.577Z,79.33
2022-12-28T17:59:51.947Z,79.09
2022-12-28T18:02:18.576Z,80.08
2022-12-28T18:04:45.086Z,79.95
2022-12-28T18:07:11.610Z,80.49
2022-12-28T18:09:37.975Z,81.34
2022-12-28T18:12:04.561Z,81.21
2022-12-28T18:14:30.945Z,81.89
2022-12-28T18:16:57.359Z,82.32
2022-12-28T18:19:23.790Z,81.77
2022-12-28T18:21:50.487Z,81.37
2022-12-28T18:24:20.565Z,82.48
2022-12-28T18:26:47.475Z,82.31
2022-12-28T18:29:13.978Z,81.83
2022-12-28T18:31:40.373Z,82.03
2022-12-28T18:34:07.340Z,83.00
2022-12-28T18:36:34.092Z,83.00
2022-12-28T18:39:02.614Z,82.94
2022-12-28T18:41:34.055Z,83.60
2022-12-28T18:44:02.574Z,83.50
2022-12-28T18:46:29.162Z,83.41
2022-12-28T18:48:56.477Z,84.09
2022-12-28T18:51:22.854Z,84.47
2022-12-28T18:53:50.658Z,84.92
2022-12-28T18:56:21.597Z,85.27
2022-12-28T18:58:56.412Z,85.17
2022-12-28T19:02:04.614Z,85.03
2022-12-28T19:04:12.895Z,85.95
2022-12-28T19:06:39.605Z,85.88
2022-12-28T19:09:08.154Z,85.58
2022-12-28T19:11:36.258Z,86.16
2022-12-28T19:14:05.489Z,86.67
2022-12-28T19:16:32.484Z,86.75
2022-12-28T19:18:59.896Z,86.61
2022-12-28T19:21:31.642Z,86.99
2022-12-28T19:24:03.511Z,87.10
2022-12-28T19:26:31.746Z,86.96
2022-12-28T19:28:58.720Z,87.11
2022-12-28T19:31:25.553Z,87.34
2022-12-28T19:33:52.092Z,87.98
2022-12-28T19:36:18.501Z,87.46
2022-12-28T19:38:44.878Z,87.49
2022-12-28T19:41:16.076Z,87.95
2022-12-28T19:43:43.497Z,87.95
2022-12-28T19:46:15.943Z,87.86
2022-12-28T19:48:42.894Z,88.21
2022-12-28T19:51:10.119Z,87.92
2022-12-28T19:53:37.380Z,88.34
2022-12-28T19:56:06.775Z,88.62
2022-12-28T19:58:34.352Z,88.23
2022-12-28T20:01:05.609Z,88.81
2022-12-28T20:03:32.249Z,88.70
2022-12-28T20:06:06.122Z,88.40
2022-12-28T20:08:33.525Z,88.79
2022-12-28T20:10:59.911Z,88.33
2022-12-28T20:13:26.308Z,87.87
2022-12-28T20:15:55.164Z,87.60
2022-12-28T20:18:21.721Z,87.65
2022-12-28T20:21:17.845Z,87.62
2022-12-28T20:23:37.679Z,87.78
2022-12-28T20:26:04.351Z,88.09
2022-12-28T20:28:31.606Z,87.59
2022-12-28T20:31:02.719Z,87.59
2022-12-28T20:33:31.271Z,87.75
2022-12-28T20:36:18.017Z,87.61
2022-12-28T20:38:44.911Z,86.93
2022-12-28T20:41:32.934Z,86.79
2022-12-28T20:44:00.606Z,86.59
2022-12-28T20:46:27.729Z,86.78
2022-12-28T20:48:54.779Z,86.55
2022-12-28T20:51:21.146Z,86.45
2022-12-28T20:53:47.544Z,86.93
2022-12-28T20:56:13.904Z,86.74
2022-12-28T20:58:40.356Z,86.74
2022-12-28T21:01:09.556Z,86.51
2022-12-28T21:03:36.489Z,86.17
2022-12-28T21:06:04.126Z,86.16
2022-12-28T21:08:31.313Z,86.31
2022-12-28T21:10:58.058Z,86.54
2022-12-28T21:13:24.701Z,86.29
2022-12-28T21:15:52.365Z,85.22
2022-12-28T21:18:19.626Z,85.47
2022-12-28T21:20:51.636Z,85.66
2022-12-28T21:23:18.309Z,85.73
2022-12-28T21:25:45.039Z,86.27
2022-12-28T21:28:11.651Z,85.82
2022-12-28T21:30:38.569Z,85.80
2022-12-28T21:33:05.583Z,85.68
2022-12-28T21:35:34.320Z,85.70
2022-12-28T21:38:01.621Z,86.01
2022-12-28T21:40:28.041Z,85.41
2022-12-28T21:42:54.425Z,85.57
2022-12-28T21:45:20.891Z,85.77
2022-12-28T21:47:47.333Z,85.43
2022-12-28T21:50:15.860Z,85.46
2022-12-28T21:52:42.217Z,85.20
2022-12-28T21:55:27.511Z,85.26
2022-12-28T21:57:54.420Z,84.41
2022-12-28T22:00:39.667Z,85.03
2022-12-28T22:03:32.151Z,85.17
2022-12-28T22:06:06.452Z,85.00
2022-12-28T22:08:52.195Z,84.52
2022-12-28T22:11:37.940Z,84.67
2022-12-28T22:14:05.709Z,84.85
2022-12-28T22:16:34.253Z,84.63
2022-12-28T22:19:03.388Z,84.89
2022-12-28T22:21:30.782Z,85.05
2022-12-28T22:23:57.215Z,85.04
2022-12-28T22:26:23.639Z,85.91
2022-12-28T22:28:50.194Z,85.68
2022-12-28T22:31:16.670Z,86.47
2022-12-28T22:33:43.306Z,86.71
2022-12-28T22:36:18.121Z,87.05
2022-12-28T22:38:44.634Z,87.00
2022-12-28T22:41:11.044Z,87.25
2022-12-28T22:43:37.476Z,87.88
2022-12-28T22:46:09.607Z,88.16
2022-12-28T22:48:36.187Z,88.69
2022-12-28T22:51:04.860Z,88.57
2022-12-28T22:53:31.971Z,88.43
2022-12-28T22:56:00.310Z,88.68
2022-12-28T22:58:27.155Z,88.60
2022-12-28T23:01:12.499Z,88.74
2022-12-28T23:03:40.552Z,89.27
2022-12-28T23:06:08.506Z,89.07
2022-12-28T23:08:35.330Z,88.95
2022-12-28T23:11:04.119Z,88.88
2022-12-28T23:13:33.308Z,89.20
2022-12-28T23:16:02.616Z,89.01
2022-12-28T23:18:48.064Z,88.82
2022-12-28T23:21:38.464Z,88.71
2022-12-28T23:24:25.296Z,88.35
2022-12-28T23:27:10.082Z,88.74
2022-12-28T23:29:36.434Z,88.63
2022-12-28T23:32:02.946Z,88.08
2022-12-28T23:34:29.319Z,88.34
2022-12-28T23:36:55.715Z,87.79
2022-12-28T23:39:23.391Z,87.83
2022-12-28T23:41:51.085Z,87.81
2022-12-28T23:44:19.840Z,87.86
2022-12-28T23:46:47.468Z,87.59
2022-12-28T23:49:15.139Z,87.23
2022-12-28T23:51:42.790Z,87.60
2022-12-28T23:54:10.095Z,87.06
2022-12-28T23:56:36.574Z,86.61
2022-12-28T23:59:04.466Z,86.64
